sensor_id;sensor_type;location;lat;lon;timestamp;P1;durP1;ratioP1;P2;durP2;ratioP2
23404;SDS011;11875;49.356;2.718;2022-12-07T00:01:06;364.10;;;38.50;;
23404;SDS011;11875;49.356;2.718;2022-12-07T00:03:34;284.50;;;35.40;;
23404;SDS011;11875;49.356;2.718;2022-12-07T00:06:01;167.87;;;31.57;;
23404;SDS011;11875;49.356;2.718;2022-12-07T00:08:27;269.90;;;45.53;;
23404;SDS011;11875;49.356;2.718;2022-12-07T00:10:53;124.37;;;30.20;;
23404;SDS011;11875;49.356;2.718;2022-12-07T00:13:18;332.17;;;37.13;;
23404;SDS011;11875;49.356;2.718;2022-12-07T00:15:44;209.43;;;29.53;;
23404;SDS011;11875;49.356;2.718;2022-12-07T00:18:10;202.20;;;32.13;;
23404;SDS011;11875;49.356;2.718;2022-12-07T00:20:35;107.50;;;26.97;;
23404;SDS011;11875;49.356;2.718;2022-12-07T00:23:01;49.33;;;21.37;;
23404;SDS011;11875;49.356;2.718;2022-12-07T00:25:27;46.47;;;21.00;;
23404;SDS011;11875;49.356;2.718;2022-12-07T00:27:53;41.43;;;19.83;;
23404;SDS011;11875;49.356;2.718;2022-12-07T00:30:21;43.80;;;20.47;;
23404;SDS011;11875;49.356;2.718;2022-12-07T00:32:47;34.77;;;18.07;;
23404;SDS011;11875;49.356;2.718;2022-12-07T00:35:13;40.60;;;19.70;;
23404;SDS011;11875;49.356;2.718;2022-12-07T00:37:39;37.57;;;19.27;;
23404;SDS011;11875;49.356;2.718;2022-12-07T00:40:05;40.30;;;18.73;;
23404;SDS011;11875;49.356;2.718;2022-12-07T00:42:31;45.30;;;19.27;;
23404;SDS011;11875;49.356;2.718;2022-12-07T00:44:56;42.47;;;19.73;;
23404;SDS011;11875;49.356;2.718;2022-12-07T00:47:22;114.87;;;23.13;;
23404;SDS011;11875;49.356;2.718;2022-12-07T00:49:48;50.60;;;21.00;;
23404;SDS011;11875;49.356;2.718;2022-12-07T00:52:13;234.97;;;37.17;;
23404;SDS011;11875;49.356;2.718;2022-12-07T00:54:39;89.17;;;24.77;;
23404;SDS011;11875;49.356;2.718;2022-12-07T00:57:05;67.47;;;22.73;;
23404;SDS011;11875;49.356;2.718;2022-12-07T00:59:31;61.67;;;19.70;;
23404;SDS011;11875;49.356;2.718;2022-12-07T01:01:56;40.70;;;18.40;;
23404;SDS011;11875;49.356;2.718;2022-12-07T01:04:22;42.03;;;18.37;;
23404;SDS011;11875;49.356;2.718;2022-12-07T01:06:47;43.40;;;19.00;;
23404;SDS011;11875;49.356;2.718;2022-12-07T01:09:13;116.70;;;20.93;;
23404;SDS011;11875;49.356;2.718;2022-12-07T01:11:39;109.13;;;21.20;;
23404;SDS011;11875;49.356;2.718;2022-12-07T01:14:04;85.70;;;21.60;;
23404;SDS011;11875;49.356;2.718;2022-12-07T01:16:30;60.57;;;20.90;;
23404;SDS011;11875;49.356;2.718;2022-12-07T01:18:57;58.03;;;18.47;;
23404;SDS011;11875;49.356;2.718;2022-12-07T01:21:25;81.97;;;20.33;;
23404;SDS011;11875;49.356;2.718;2022-12-07T01:23:59;133.60;;;24.40;;
23404;SDS011;11875;49.356;2.718;2022-12-07T01:26:25;243.27;;;27.07;;
23404;SDS011;11875;49.356;2.718;2022-12-07T01:28:54;180.57;;;26.07;;
23404;SDS011;11875;49.356;2.718;2022-12-07T01:31:21;140.53;;;23.63;;
23404;SDS011;11875;49.356;2.718;2022-12-07T01:33:52;94.57;;;20.70;;
23404;SDS011;11875;49.356;2.718;2022-12-07T01:36:22;140.40;;;19.77;;
23404;SDS011;11875;49.356;2.718;2022-12-07T01:38:50;102.27;;;18.53;;
23404;SDS011;11875;49.356;2.718;2022-12-07T01:41:19;84.57;;;20.97;;
23404;SDS011;11875;49.356;2.718;2022-12-07T01:46:37;46.63;;;16.73;;
23404;SDS011;11875;49.356;2.718;2022-12-07T01:49:04;68.83;;;18.30;;
23404;SDS011;11875;49.356;2.718;2022-12-07T01:51:37;34.37;;;15.80;;
23404;SDS011;11875;49.356;2.718;2022-12-07T01:54:05;33.77;;;16.17;;
23404;SDS011;11875;49.356;2.718;2022-12-07T01:56:31;31.70;;;16.80;;
23404;SDS011;11875;49.356;2.718;2022-12-07T01:58:57;33.57;;;17.27;;
23404;SDS011;11875;49.356;2.718;2022-12-07T02:01:25;29.00;;;15.30;;
23404;SDS011;11875;49.356;2.718;2022-12-07T02:03:50;35.17;;;17.00;;
23404;SDS011;11875;49.356;2.718;2022-12-07T02:06:18;40.23;;;16.63;;
23404;SDS011;11875;49.356;2.718;2022-12-07T02:08:47;33.57;;;16.07;;
23404;SDS011;11875;49.356;2.718;2022-12-07T02:11:13;33.63;;;16.33;;
23404;SDS011;11875;49.356;2.718;2022-12-07T02:13:40;34.30;;;16.27;;
23404;SDS011;11875;49.356;2.718;2022-12-07T02:27:02;36.03;;;18.43;;
23404;SDS011;11875;49.356;2.718;2022-12-07T02:34:50;37.30;;;18.83;;
23404;SDS011;11875;49.356;2.718;2022-12-07T02:40:18;33.67;;;17.23;;
23404;SDS011;11875;49.356;2.718;2022-12-07T02:42:45;35.37;;;18.17;;
23404;SDS011;11875;49.356;2.718;2022-12-07T02:45:16;31.90;;;18.03;;
23404;SDS011;11875;49.356;2.718;2022-12-07T02:47:45;30.57;;;16.70;;
23404;SDS011;11875;49.356;2.718;2022-12-07T02:50:17;28.17;;;16.97;;
23404;SDS011;11875;49.356;2.718;2022-12-07T02:52:46;32.23;;;16.80;;
23404;SDS011;11875;49.356;2.718;2022-12-07T02:55:12;29.40;;;16.23;;
23404;SDS011;11875;49.356;2.718;2022-12-07T02:57:47;29.50;;;16.50;;
23404;SDS011;11875;49.356;2.718;2022-12-07T03:00:19;33.63;;;17.97;;
23404;SDS011;11875;49.356;2.718;2022-12-07T03:02:59;32.47;;;19.03;;
23404;SDS011;11875;49.356;2.718;2022-12-07T03:08:21;30.23;;;17.13;;
23404;SDS011;11875;49.356;2.718;2022-12-07T03:16:01;27.43;;;16.57;;
23404;SDS011;11875;49.356;2.718;2022-12-07T03:18:37;28.77;;;16.87;;
23404;SDS011;11875;49.356;2.718;2022-12-07T03:21:08;30.30;;;17.00;;
23404;SDS011;11875;49.356;2.718;2022-12-07T03:23:38;29.73;;;16.57;;
23404;SDS011;11875;49.356;2.718;2022-12-07T03:26:08;31.87;;;16.60;;
23404;SDS011;11875;49.356;2.718;2022-12-07T03:28:39;26.60;;;16.00;;
23404;SDS011;11875;49.356;2.718;2022-12-07T03:31:15;29.80;;;17.57;;
23404;SDS011;11875;49.356;2.718;2022-12-07T03:37:18;26.80;;;16.27;;
23404;SDS011;11875;49.356;2.718;2022-12-07T03:40:23;29.83;;;16.27;;
23404;SDS011;11875;49.356;2.718;2022-12-07T03:42:39;32.13;;;17.87;;
23404;SDS011;11875;49.356;2.718;2022-12-07T03:45:06;31.13;;;18.37;;
23404;SDS011;11875;49.356;2.718;2022-12-07T03:47:33;32.50;;;18.07;;
23404;SDS011;11875;49.356;2.718;2022-12-07T03:50:07;34.30;;;17.67;;
23404;SDS011;11875;49.356;2.718;2022-12-07T03:52:40;29.23;;;16.30;;
23404;SDS011;11875;49.356;2.718;2022-12-07T03:57:41;29.97;;;17.10;;
23404;SDS011;11875;49.356;2.718;2022-12-07T04:00:10;34.43;;;18.90;;
23404;SDS011;11875;49.356;2.718;2022-12-07T04:02:36;30.17;;;17.77;;
23404;SDS011;11875;49.356;2.718;2022-12-07T04:05:02;30.67;;;16.50;;
23404;SDS011;11875;49.356;2.718;2022-12-07T04:07:28;30.87;;;16.20;;
23404;SDS011;11875;49.356;2.718;2022-12-07T04:09:54;27.60;;;15.77;;
23404;SDS011;11875;49.356;2.718;2022-12-07T04:12:22;30.13;;;16.27;;
23404;SDS011;11875;49.356;2.718;2022-12-07T04:14:48;31.33;;;16.77;;
23404;SDS011;11875;49.356;2.718;2022-12-07T04:17:14;29.53;;;16.30;;
23404;SDS011;11875;49.356;2.718;2022-12-07T04:19:39;31.17;;;16.97;;
23404;SDS011;11875;49.356;2.718;2022-12-07T04:22:05;32.83;;;17.47;;
23404;SDS011;11875;49.356;2.718;2022-12-07T04:24:31;31.60;;;17.30;;
23404;SDS011;11875;49.356;2.718;2022-12-07T04:26:57;27.63;;;16.40;;
23404;SDS011;11875;49.356;2.718;2022-12-07T04:29:23;28.77;;;17.00;;
23404;SDS011;11875;49.356;2.718;2022-12-07T04:31:49;34.83;;;17.13;;
23404;SDS011;11875;49.356;2.718;2022-12-07T04:34:15;32.80;;;17.27;;
23404;SDS011;11875;49.356;2.718;2022-12-07T04:36:41;26.50;;;15.67;;
23404;SDS011;11875;49.356;2.718;2022-12-07T04:39:09;28.33;;;16.33;;
23404;SDS011;11875;49.356;2.718;2022-12-07T04:41:59;32.37;;;16.10;;
23404;SDS011;11875;49.356;2.718;2022-12-07T04:44:26;26.13;;;16.10;;
23404;SDS011;11875;49.356;2.718;2022-12-07T04:46:52;34.53;;;17.03;;
23404;SDS011;11875;49.356;2.718;2022-12-07T04:49:19;31.43;;;15.87;;
23404;SDS011;11875;49.356;2.718;2022-12-07T04:51:44;25.63;;;15.57;;
23404;SDS011;11875;49.356;2.718;2022-12-07T04:54:11;28.43;;;16.77;;
23404;SDS011;11875;49.356;2.718;2022-12-07T04:56:37;29.20;;;16.87;;
23404;SDS011;11875;49.356;2.718;2022-12-07T04:59:04;30.00;;;17.47;;
23404;SDS011;11875;49.356;2.718;2022-12-07T05:01:30;28.23;;;16.20;;
23404;SDS011;11875;49.356;2.718;2022-12-07T05:03:55;27.23;;;16.00;;
23404;SDS011;11875;49.356;2.718;2022-12-07T05:06:21;26.13;;;15.20;;
23404;SDS011;11875;49.356;2.718;2022-12-07T05:08:47;30.17;;;16.47;;
23404;SDS011;11875;49.356;2.718;2022-12-07T05:11:13;28.93;;;16.30;;
23404;SDS011;11875;49.356;2.718;2022-12-07T05:13:58;29.90;;;16.57;;
23404;SDS011;11875;49.356;2.718;2022-12-07T05:16:24;40.97;;;21.97;;
23404;SDS011;11875;49.356;2.718;2022-12-07T05:18:51;40.27;;;20.93;;
23404;SDS011;11875;49.356;2.718;2022-12-07T05:21:16;33.37;;;18.90;;
23404;SDS011;11875;49.356;2.718;2022-12-07T05:23:42;35.57;;;19.23;;
23404;SDS011;11875;49.356;2.718;2022-12-07T05:26:07;29.63;;;17.73;;
23404;SDS011;11875;49.356;2.718;2022-12-07T05:28:33;29.23;;;17.60;;
23404;SDS011;11875;49.356;2.718;2022-12-07T05:30:59;31.97;;;17.17;;
23404;SDS011;11875;49.356;2.718;2022-12-07T05:33:24;34.43;;;18.30;;
23404;SDS011;11875;49.356;2.718;2022-12-07T05:35:50;28.37;;;17.57;;
23404;SDS011;11875;49.356;2.718;2022-12-07T05:38:15;31.60;;;17.27;;
23404;SDS011;11875;49.356;2.718;2022-12-07T05:40:41;33.17;;;18.20;;
23404;SDS011;11875;49.356;2.718;2022-12-07T05:43:07;28.13;;;17.23;;
23404;SDS011;11875;49.356;2.718;2022-12-07T05:45:32;29.30;;;16.93;;
23404;SDS011;11875;49.356;2.718;2022-12-07T05:47:58;33.67;;;18.60;;
23404;SDS011;11875;49.356;2.718;2022-12-07T05:50:23;30.63;;;16.40;;
23404;SDS011;11875;49.356;2.718;2022-12-07T05:52:49;31.57;;;16.90;;
23404;SDS011;11875;49.356;2.718;2022-12-07T05:55:15;29.67;;;17.63;;
23404;SDS011;11875;49.356;2.718;2022-12-07T05:57:40;31.27;;;16.67;;
23404;SDS011;11875;49.356;2.718;2022-12-07T06:00:26;27.50;;;16.97;;
23404;SDS011;11875;49.356;2.718;2022-12-07T06:02:51;29.87;;;17.40;;
23404;SDS011;11875;49.356;2.718;2022-12-07T06:05:17;33.47;;;19.10;;
23404;SDS011;11875;49.356;2.718;2022-12-07T06:07:43;31.73;;;17.67;;
23404;SDS011;11875;49.356;2.718;2022-12-07T06:10:08;34.13;;;17.87;;
23404;SDS011;11875;49.356;2.718;2022-12-07T06:12:34;33.57;;;18.13;;
23404;SDS011;11875;49.356;2.718;2022-12-07T06:15:00;34.87;;;20.20;;
23404;SDS011;11875;49.356;2.718;2022-12-07T06:17:26;32.93;;;18.73;;
23404;SDS011;11875;49.356;2.718;2022-12-07T06:19:51;30.93;;;18.23;;
23404;SDS011;11875;49.356;2.718;2022-12-07T06:22:17;36.37;;;17.73;;
23404;SDS011;11875;49.356;2.718;2022-12-07T06:24:43;34.90;;;17.60;;
23404;SDS011;11875;49.356;2.718;2022-12-07T06:27:09;30.63;;;17.50;;
23404;SDS011;11875;49.356;2.718;2022-12-07T06:29:35;38.13;;;20.67;;
23404;SDS011;11875;49.356;2.718;2022-12-07T06:32:01;29.10;;;18.00;;
23404;SDS011;11875;49.356;2.718;2022-12-07T06:34:27;112.13;;;46.33;;
23404;SDS011;11875;49.356;2.718;2022-12-07T06:36:53;37.93;;;20.97;;
23404;SDS011;11875;49.356;2.718;2022-12-07T06:39:26;50.73;;;25.60;;
23404;SDS011;11875;49.356;2.718;2022-12-07T06:41:53;36.60;;;20.70;;
23404;SDS011;11875;49.356;2.718;2022-12-07T06:44:19;36.00;;;18.07;;
23404;SDS011;11875;49.356;2.718;2022-12-07T06:46:45;34.27;;;19.80;;
23404;SDS011;11875;49.356;2.718;2022-12-07T06:49:11;31.73;;;17.57;;
23404;SDS011;11875;49.356;2.718;2022-12-07T06:51:36;40.03;;;19.67;;
23404;SDS011;11875;49.356;2.718;2022-12-07T06:54:06;71.17;;;30.77;;
23404;SDS011;11875;49.356;2.718;2022-12-07T06:56:33;48.20;;;22.37;;
23404;SDS011;11875;49.356;2.718;2022-12-07T06:58:59;30.83;;;18.50;;
23404;SDS011;11875;49.356;2.718;2022-12-07T07:01:24;38.90;;;19.43;;
23404;SDS011;11875;49.356;2.718;2022-12-07T07:03:50;38.20;;;19.77;;
23404;SDS011;11875;49.356;2.718;2022-12-07T07:06:15;33.60;;;18.60;;
23404;SDS011;11875;49.356;2.718;2022-12-07T07:08:41;86.37;;;35.63;;
23404;SDS011;11875;49.356;2.718;2022-12-07T07:11:07;48.77;;;22.90;;
23404;SDS011;11875;49.356;2.718;2022-12-07T07:13:34;36.97;;;19.90;;
23404;SDS011;11875;49.356;2.718;2022-12-07T07:15:59;32.03;;;18.77;;
23404;SDS011;11875;49.356;2.718;2022-12-07T07:18:25;36.13;;;18.87;;
23404;SDS011;11875;49.356;2.718;2022-12-07T07:20:51;71.27;;;30.33;;
23404;SDS011;11875;49.356;2.718;2022-12-07T07:23:17;40.93;;;20.53;;
23404;SDS011;11875;49.356;2.718;2022-12-07T07:25:44;39.00;;;20.50;;
23404;SDS011;11875;49.356;2.718;2022-12-07T07:28:10;42.67;;;20.83;;
23404;SDS011;11875;49.356;2.718;2022-12-07T07:30:36;55.37;;;26.90;;
23404;SDS011;11875;49.356;2.718;2022-12-07T07:33:03;48.87;;;24.03;;
23404;SDS011;11875;49.356;2.718;2022-12-07T07:35:30;48.70;;;23.90;;
23404;SDS011;11875;49.356;2.718;2022-12-07T07:37:57;38.93;;;20.87;;
23404;SDS011;11875;49.356;2.718;2022-12-07T07:40:23;36.17;;;20.90;;
23404;SDS011;11875;49.356;2.718;2022-12-07T07:42:49;39.03;;;20.67;;
23404;SDS011;11875;49.356;2.718;2022-12-07T07:45:16;38.30;;;20.90;;
23404;SDS011;11875;49.356;2.718;2022-12-07T07:47:43;41.80;;;20.93;;
23404;SDS011;11875;49.356;2.718;2022-12-07T07:50:09;42.70;;;22.43;;
23404;SDS011;11875;49.356;2.718;2022-12-07T07:52:35;42.30;;;22.57;;
23404;SDS011;11875;49.356;2.718;2022-12-07T07:55:00;86.53;;;37.03;;
23404;SDS011;11875;49.356;2.718;2022-12-07T07:57:26;47.13;;;23.93;;
23404;SDS011;11875;49.356;2.718;2022-12-07T07:59:52;43.57;;;22.33;;
23404;SDS011;11875;49.356;2.718;2022-12-07T08:02:18;37.03;;;21.07;;
23404;SDS011;11875;49.356;2.718;2022-12-07T08:04:47;40.80;;;19.70;;
23404;SDS011;11875;49.356;2.718;2022-12-07T08:07:13;68.00;;;29.23;;
23404;SDS011;11875;49.356;2.718;2022-12-07T08:09:39;58.80;;;24.70;;
23404;SDS011;11875;49.356;2.718;2022-12-07T08:12:05;43.57;;;19.50;;
23404;SDS011;11875;49.356;2.718;2022-12-07T08:14:31;40.80;;;20.40;;
23404;SDS011;11875;49.356;2.718;2022-12-07T08:16:59;69.93;;;29.17;;
23404;SDS011;11875;49.356;2.718;2022-12-07T08:19:25;40.67;;;19.67;;
23404;SDS011;11875;49.356;2.718;2022-12-07T08:21:51;76.03;;;31.33;;
23404;SDS011;11875;49.356;2.718;2022-12-07T08:24:16;51.50;;;24.70;;
23404;SDS011;11875;49.356;2.718;2022-12-07T08:26:43;41.17;;;20.37;;
23404;SDS011;11875;49.356;2.718;2022-12-07T08:29:08;36.83;;;19.70;;
23404;SDS011;11875;49.356;2.718;2022-12-07T08:31:34;32.67;;;18.20;;
23404;SDS011;11875;49.356;2.718;2022-12-07T08:34:00;38.10;;;20.80;;
23404;SDS011;11875;49.356;2.718;2022-12-07T08:36:26;35.43;;;18.77;;
23404;SDS011;11875;49.356;2.718;2022-12-07T08:38:51;43.77;;;21.97;;
23404;SDS011;11875;49.356;2.718;2022-12-07T08:41:17;30.27;;;19.13;;
23404;SDS011;11875;49.356;2.718;2022-12-07T08:43:43;38.63;;;20.60;;
23404;SDS011;11875;49.356;2.718;2022-12-07T08:48:38;33.10;;;18.37;;
23404;SDS011;11875;49.356;2.718;2022-12-07T08:51:07;33.23;;;17.67;;
23404;SDS011;11875;49.356;2.718;2022-12-07T08:53:32;31.27;;;17.90;;
23404;SDS011;11875;49.356;2.718;2022-12-07T08:55:59;44.23;;;24.50;;
23404;SDS011;11875;49.356;2.718;2022-12-07T08:58:25;60.83;;;35.03;;
23404;SDS011;11875;49.356;2.718;2022-12-07T09:00:51;39.43;;;19.23;;
23404;SDS011;11875;49.356;2.718;2022-12-07T09:03:17;38.60;;;21.70;;
23404;SDS011;11875;49.356;2.718;2022-12-07T09:05:43;31.73;;;19.87;;
23404;SDS011;11875;49.356;2.718;2022-12-07T09:08:08;32.17;;;19.17;;
23404;SDS011;11875;49.356;2.718;2022-12-07T09:10:34;26.93;;;15.77;;
23404;SDS011;11875;49.356;2.718;2022-12-07T09:13:00;33.87;;;16.70;;
23404;SDS011;11875;49.356;2.718;2022-12-07T09:15:26;32.27;;;17.13;;
23404;SDS011;11875;49.356;2.718;2022-12-07T09:17:53;27.07;;;16.87;;
23404;SDS011;11875;49.356;2.718;2022-12-07T09:20:18;29.77;;;16.83;;
23404;SDS011;11875;49.356;2.718;2022-12-07T09:22:44;32.20;;;18.13;;
23404;SDS011;11875;49.356;2.718;2022-12-07T09:25:10;31.53;;;16.60;;
23404;SDS011;11875;49.356;2.718;2022-12-07T09:27:35;30.07;;;18.10;;
23404;SDS011;11875;49.356;2.718;2022-12-07T09:30:01;36.70;;;20.00;;
23404;SDS011;11875;49.356;2.718;2022-12-07T09:32:28;42.43;;;22.77;;
23404;SDS011;11875;49.356;2.718;2022-12-07T09:34:53;35.93;;;20.00;;
23404;SDS011;11875;49.356;2.718;2022-12-07T09:37:19;28.00;;;17.93;;
23404;SDS011;11875;49.356;2.718;2022-12-07T09:39:44;29.27;;;18.50;;
23404;SDS011;11875;49.356;2.718;2022-12-07T09:42:11;36.27;;;21.37;;
23404;SDS011;11875;49.356;2.718;2022-12-07T09:45:14;27.60;;;16.30;;
23404;SDS011;11875;49.356;2.718;2022-12-07T09:47:49;33.43;;;18.60;;
23404;SDS011;11875;49.356;2.718;2022-12-07T09:50:16;35.10;;;20.30;;
23404;SDS011;11875;49.356;2.718;2022-12-07T09:52:47;31.17;;;17.10;;
23404;SDS011;11875;49.356;2.718;2022-12-07T09:55:35;28.47;;;15.57;;
23404;SDS011;11875;49.356;2.718;2022-12-07T09:58:01;67.13;;;35.03;;
23404;SDS011;11875;49.356;2.718;2022-12-07T10:00:27;66.73;;;35.10;;
23404;SDS011;11875;49.356;2.718;2022-12-07T10:02:58;50.87;;;31.33;;
23404;SDS011;11875;49.356;2.718;2022-12-07T10:05:27;33.30;;;17.83;;
23404;SDS011;11875;49.356;2.718;2022-12-07T10:07:57;32.17;;;15.67;;
23404;SDS011;11875;49.356;2.718;2022-12-07T10:10:24;27.33;;;15.80;;
23404;SDS011;11875;49.356;2.718;2022-12-07T10:12:56;44.53;;;25.30;;
23404;SDS011;11875;49.356;2.718;2022-12-07T10:15:40;27.37;;;16.67;;
23404;SDS011;11875;49.356;2.718;2022-12-07T10:23:38;34.73;;;17.60;;
23404;SDS011;11875;49.356;2.718;2022-12-07T10:28:53;57.53;;;31.83;;
23404;SDS011;11875;49.356;2.718;2022-12-07T10:31:21;36.73;;;19.70;;
23404;SDS011;11875;49.356;2.718;2022-12-07T10:33:49;27.03;;;16.87;;
23404;SDS011;11875;49.356;2.718;2022-12-07T10:36:19;29.27;;;17.10;;
23404;SDS011;11875;49.356;2.718;2022-12-07T10:38:50;29.37;;;17.13;;
23404;SDS011;11875;49.356;2.718;2022-12-07T10:41:17;36.07;;;17.53;;
23404;SDS011;11875;49.356;2.718;2022-12-07T10:43:48;36.20;;;17.50;;
23404;SDS011;11875;49.356;2.718;2022-12-07T10:51:38;33.50;;;19.77;;
23404;SDS011;11875;49.356;2.718;2022-12-07T10:57:46;30.90;;;18.03;;
23404;SDS011;11875;49.356;2.718;2022-12-07T10:59:59;26.77;;;15.67;;
23404;SDS011;11875;49.356;2.718;2022-12-07T11:05:39;39.37;;;21.13;;
23404;SDS011;11875;49.356;2.718;2022-12-07T11:13:53;31.83;;;14.70;;
23404;SDS011;11875;49.356;2.718;2022-12-07T11:25:21;23.53;;;10.43;;
23404;SDS011;11875;49.356;2.718;2022-12-07T11:33:35;21.60;;;11.03;;
23404;SDS011;11875;49.356;2.718;2022-12-07T11:36:29;22.60;;;9.00;;
23404;SDS011;11875;49.356;2.718;2022-12-07T11:38:57;24.20;;;10.87;;
23404;SDS011;11875;49.356;2.718;2022-12-07T11:41:28;19.73;;;8.43;;
23404;SDS011;11875;49.356;2.718;2022-12-07T11:46:24;17.93;;;8.37;;
23404;SDS011;11875;49.356;2.718;2022-12-07T11:51:45;25.23;;;8.43;;
23404;SDS011;11875;49.356;2.718;2022-12-07T11:54:27;21.93;;;9.27;;
23404;SDS011;11875;49.356;2.718;2022-12-07T11:57:02;19.80;;;9.43;;
23404;SDS011;11875;49.356;2.718;2022-12-07T11:59:41;15.60;;;8.30;;
23404;SDS011;11875;49.356;2.718;2022-12-07T12:02:26;18.07;;;8.13;;
23404;SDS011;11875;49.356;2.718;2022-12-07T12:05:05;23.67;;;9.23;;
23404;SDS011;11875;49.356;2.718;2022-12-07T12:07:43;13.07;;;8.17;;
23404;SDS011;11875;49.356;2.718;2022-12-07T12:10:16;11.60;;;7.63;;
23404;SDS011;11875;49.356;2.718;2022-12-07T12:18:19;21.67;;;8.03;;
23404;SDS011;11875;49.356;2.718;2022-12-07T12:20:57;45.23;;;20.70;;
23404;SDS011;11875;49.356;2.718;2022-12-07T12:23:44;14.53;;;7.80;;
23404;SDS011;11875;49.356;2.718;2022-12-07T12:26:17;20.53;;;8.33;;
23404;SDS011;11875;49.356;2.718;2022-12-07T12:31:15;21.60;;;10.77;;
23404;SDS011;11875;49.356;2.718;2022-12-07T12:33:46;23.50;;;8.80;;
23404;SDS011;11875;49.356;2.718;2022-12-07T12:38:52;19.30;;;10.20;;
23404;SDS011;11875;49.356;2.718;2022-12-07T12:54:18;19.97;;;9.80;;
23404;SDS011;11875;49.356;2.718;2022-12-07T12:57:07;16.87;;;9.23;;
23404;SDS011;11875;49.356;2.718;2022-12-07T13:05:27;24.23;;;10.10;;
23404;SDS011;11875;49.356;2.718;2022-12-07T13:07:56;20.37;;;8.57;;
23404;SDS011;11875;49.356;2.718;2022-12-07T13:15:38;18.13;;;8.80;;
23404;SDS011;11875;49.356;2.718;2022-12-07T13:20:54;18.90;;;8.83;;
23404;SDS011;11875;49.356;2.718;2022-12-07T13:23:36;17.80;;;9.13;;
23404;SDS011;11875;49.356;2.718;2022-12-07T13:29:11;26.17;;;9.83;;
23404;SDS011;11875;49.356;2.718;2022-12-07T13:34:36;31.33;;;10.73;;
23404;SDS011;11875;49.356;2.718;2022-12-07T13:39:45;23.03;;;9.40;;
23404;SDS011;11875;49.356;2.718;2022-12-07T13:42:25;16.30;;;8.90;;
23404;SDS011;11875;49.356;2.718;2022-12-07T13:44:55;12.50;;;7.10;;
23404;SDS011;11875;49.356;2.718;2022-12-07T13:47:30;18.03;;;7.93;;
23404;SDS011;11875;49.356;2.718;2022-12-07T13:50:01;14.77;;;6.93;;
23404;SDS011;11875;49.356;2.718;2022-12-07T13:52:27;16.13;;;7.70;;
23404;SDS011;11875;49.356;2.718;2022-12-07T13:57:26;21.77;;;9.27;;
23404;SDS011;11875;49.356;2.718;2022-12-07T13:59:54;11.73;;;7.80;;
23404;SDS011;11875;49.356;2.718;2022-12-07T14:02:21;21.70;;;8.73;;
23404;SDS011;11875;49.356;2.718;2022-12-07T14:10:26;24.40;;;10.20;;
23404;SDS011;11875;49.356;2.718;2022-12-07T14:12:54;21.60;;;9.53;;
23404;SDS011;11875;49.356;2.718;2022-12-07T14:15:21;28.50;;;13.00;;
23404;SDS011;11875;49.356;2.718;2022-12-07T14:17:53;20.40;;;9.97;;
23404;SDS011;11875;49.356;2.718;2022-12-07T14:22:59;25.60;;;9.40;;
23404;SDS011;11875;49.356;2.718;2022-12-07T14:25:34;18.73;;;9.20;;
23404;SDS011;11875;49.356;2.718;2022-12-07T14:28:30;25.27;;;9.73;;
23404;SDS011;11875;49.356;2.718;2022-12-07T14:31:00;20.40;;;10.37;;
23404;SDS011;11875;49.356;2.718;2022-12-07T14:33:27;22.27;;;10.33;;
23404;SDS011;11875;49.356;2.718;2022-12-07T14:35:53;15.23;;;9.47;;
23404;SDS011;11875;49.356;2.718;2022-12-07T14:38:21;18.67;;;8.27;;
23404;SDS011;11875;49.356;2.718;2022-12-07T14:40:47;30.97;;;9.93;;
23404;SDS011;11875;49.356;2.718;2022-12-07T14:43:14;14.43;;;8.17;;
23404;SDS011;11875;49.356;2.718;2022-12-07T14:45:41;18.00;;;8.27;;
23404;SDS011;11875;49.356;2.718;2022-12-07T14:48:10;16.97;;;8.07;;
23404;SDS011;11875;49.356;2.718;2022-12-07T14:50:49;19.40;;;9.40;;
23404;SDS011;11875;49.356;2.718;2022-12-07T14:53:18;13.37;;;7.80;;
23404;SDS011;11875;49.356;2.718;2022-12-07T14:55:50;22.60;;;11.17;;
23404;SDS011;11875;49.356;2.718;2022-12-07T14:58:17;18.80;;;8.90;;
23404;SDS011;11875;49.356;2.718;2022-12-07T15:00:43;20.23;;;11.00;;
23404;SDS011;11875;49.356;2.718;2022-12-07T15:03:09;34.37;;;15.17;;
23404;SDS011;11875;49.356;2.718;2022-12-07T15:05:35;18.67;;;11.17;;
23404;SDS011;11875;49.356;2.718;2022-12-07T15:08:02;28.37;;;16.27;;
23404;SDS011;11875;49.356;2.718;2022-12-07T15:10:29;22.97;;;11.73;;
23404;SDS011;11875;49.356;2.718;2022-12-07T15:12:58;17.43;;;9.90;;
23404;SDS011;11875;49.356;2.718;2022-12-07T15:15:45;16.00;;;8.73;;
23404;SDS011;11875;49.356;2.718;2022-12-07T15:18:10;18.07;;;8.63;;
23404;SDS011;11875;49.356;2.718;2022-12-07T15:20:36;27.93;;;10.10;;
23404;SDS011;11875;49.356;2.718;2022-12-07T15:23:02;27.53;;;10.43;;
23404;SDS011;11875;49.356;2.718;2022-12-07T15:25:27;25.53;;;11.43;;
23404;SDS011;11875;49.356;2.718;2022-12-07T15:27:53;27.57;;;10.17;;
23404;SDS011;11875;49.356;2.718;2022-12-07T15:30:19;21.60;;;10.23;;
23404;SDS011;11875;49.356;2.718;2022-12-07T15:32:48;11.43;;;7.37;;
23404;SDS011;11875;49.356;2.718;2022-12-07T15:35:14;16.07;;;8.00;;
23404;SDS011;11875;49.356;2.718;2022-12-07T15:37:40;16.80;;;8.07;;
23404;SDS011;11875;49.356;2.718;2022-12-07T15:40:06;17.67;;;10.40;;
23404;SDS011;11875;49.356;2.718;2022-12-07T15:42:32;30.53;;;16.50;;
23404;SDS011;11875;49.356;2.718;2022-12-07T15:44:57;19.37;;;10.00;;
23404;SDS011;11875;49.356;2.718;2022-12-07T15:47:29;17.13;;;8.60;;
23404;SDS011;11875;49.356;2.718;2022-12-07T15:49:59;19.83;;;10.13;;
23404;SDS011;11875;49.356;2.718;2022-12-07T15:52:25;17.33;;;8.57;;
23404;SDS011;11875;49.356;2.718;2022-12-07T15:54:51;16.07;;;8.77;;
23404;SDS011;11875;49.356;2.718;2022-12-07T15:57:16;21.97;;;9.30;;
23404;SDS011;11875;49.356;2.718;2022-12-07T15:59:42;23.93;;;10.23;;
23404;SDS011;11875;49.356;2.718;2022-12-07T16:02:09;18.03;;;9.33;;
23404;SDS011;11875;49.356;2.718;2022-12-07T16:04:35;21.67;;;10.97;;
23404;SDS011;11875;49.356;2.718;2022-12-07T16:07:01;21.43;;;11.67;;
23404;SDS011;11875;49.356;2.718;2022-12-07T16:09:27;16.67;;;9.93;;
23404;SDS011;11875;49.356;2.718;2022-12-07T16:11:53;21.33;;;9.07;;
23404;SDS011;11875;49.356;2.718;2022-12-07T16:14:19;17.63;;;9.43;;
23404;SDS011;11875;49.356;2.718;2022-12-07T16:16:44;19.30;;;8.40;;
23404;SDS011;11875;49.356;2.718;2022-12-07T16:19:10;17.40;;;8.77;;
23404;SDS011;11875;49.356;2.718;2022-12-07T16:21:36;22.47;;;8.87;;
23404;SDS011;11875;49.356;2.718;2022-12-07T16:24:02;15.40;;;9.00;;
23404;SDS011;11875;49.356;2.718;2022-12-07T16:26:28;22.17;;;8.87;;
23404;SDS011;11875;49.356;2.718;2022-12-07T16:28:54;19.57;;;8.83;;
23404;SDS011;11875;49.356;2.718;2022-12-07T16:31:21;16.43;;;9.53;;
23404;SDS011;11875;49.356;2.718;2022-12-07T16:33:48;18.50;;;9.27;;
23404;SDS011;11875;49.356;2.718;2022-12-07T16:36:14;35.93;;;16.97;;
23404;SDS011;11875;49.356;2.718;2022-12-07T16:38:41;18.03;;;10.60;;
23404;SDS011;11875;49.356;2.718;2022-12-07T16:41:08;26.33;;;14.50;;
23404;SDS011;11875;49.356;2.718;2022-12-07T16:43:34;21.33;;;9.70;;
23404;SDS011;11875;49.356;2.718;2022-12-07T16:46:01;36.70;;;18.53;;
23404;SDS011;11875;49.356;2.718;2022-12-07T16:48:27;19.23;;;9.27;;
23404;SDS011;11875;49.356;2.718;2022-12-07T16:50:53;27.83;;;10.77;;